PIC8820 KSLC-KLAX
Flight info
| Callsign | PIC8820 |
|---|---|
| Flight time | 1h 22m |
| Altitude | 38000 |
| Route | ZIONZ1 KROST DCT KENNO DCT PMD KIMMO3 |
| Aircraft | B748/M-SDE2E3FGHIRWXY/LB1 |
Departure
| Time | 2026-04-24 07:21 |
|---|---|
| Airport | Salt Lake City International Airport (KSLC) |
Arrival
| Time | 2026-04-24 08:43 |
|---|---|
| Airport | Los Angeles International Airport (KLAX) |
| Time | Latitude | Longitude | Altitude | Speed | Heading |
|---|---|---|---|---|---|
| 2026-04-24 07:00 | 40.78934 | -111.97834 | 4245 ft | 0 kts | 186° |
| 2026-04-24 07:14 | 40.78935 | -111.97834 | 4243 ft | 2 kts | 186° |
| 2026-04-24 07:14 | 40.78952 | -111.97831 | 4243 ft | 2 kts | 186° |
| 2026-04-24 07:14 | 40.78969 | -111.97828 | 4242 ft | 2 kts | 186° |
| 2026-04-24 07:14 | 40.78986 | -111.97826 | 4243 ft | 2 kts | 186° |
| 2026-04-24 07:15 | 40.78998 | -111.97824 | 4242 ft | 3 kts | 186° |
| 2026-04-24 07:15 | 40.79015 | -111.97821 | 4244 ft | 3 kts | 186° |
| 2026-04-24 07:15 | 40.79032 | -111.97819 | 4243 ft | 3 kts | 186° |
| 2026-04-24 07:15 | 40.79043 | -111.97817 | 4242 ft | 0 kts | 186° |
| 2026-04-24 07:16 | 40.79006 | -111.97785 | 4245 ft | 16 kts | 123° |
| 2026-04-24 07:16 | 40.79004 | -111.97671 | 4243 ft | 1 kts | 79° |
| 2026-04-24 07:16 | 40.79002 | -111.97685 | 4242 ft | 2 kts | 65° |
| 2026-04-24 07:16 | 40.78995 | -111.97705 | 4243 ft | 3 kts | 58° |
| 2026-04-24 07:17 | 40.79001 | -111.97703 | 4242 ft | 5 kts | 33° |
| 2026-04-24 07:17 | 40.79073 | -111.97707 | 4245 ft | 28 kts | 353° |
| 2026-04-24 07:17 | 40.79287 | -111.97738 | 4241 ft | 30 kts | 354° |
| 2026-04-24 07:17 | 40.79513 | -111.97765 | 4237 ft | 42 kts | 355° |
| 2026-04-24 07:18 | 40.79792 | -111.97798 | 4241 ft | 38 kts | 355° |
| 2026-04-24 07:18 | 40.80041 | -111.97826 | 4245 ft | 34 kts | 355° |
| 2026-04-24 07:18 | 40.80289 | -111.97852 | 4246 ft | 37 kts | 355° |
| 2026-04-24 07:18 | 40.80538 | -111.97884 | 4245 ft | 36 kts | 354° |
| 2026-04-24 07:19 | 40.80738 | -111.97882 | 4243 ft | 12 kts | 32° |
| 2026-04-24 07:19 | 40.80745 | -111.97871 | 4242 ft | 4 kts | 51° |
| 2026-04-24 07:19 | 40.80749 | -111.97813 | 4241 ft | 0 kts | 99° |
| 2026-04-24 07:19 | 40.80748 | -111.97810 | 4241 ft | 3 kts | 101° |
| 2026-04-24 07:20 | 40.80707 | -111.97713 | 4241 ft | 21 kts | 139° |
| 2026-04-24 07:20 | 40.80458 | -111.97655 | 4245 ft | 70 kts | 175° |
| 2026-04-24 07:20 | 40.79696 | -111.97572 | 4240 ft | 147 kts | 175° |
| 2026-04-24 07:20 | 40.78476 | -111.97440 | 4264 ft | 198 kts | 174° |
| 2026-04-24 07:21 | 40.77071 | -111.97238 | 4655 ft | 209 kts | 172° |
| 2026-04-24 07:21 | 40.75571 | -111.96970 | 5101 ft | 227 kts | 171° |
| 2026-04-24 07:21 | 40.73945 | -111.96624 | 5580 ft | 245 kts | 169° |
| 2026-04-24 07:21 | 40.72216 | -111.96195 | 6137 ft | 263 kts | 170° |
| 2026-04-24 07:22 | 40.70285 | -111.95698 | 6543 ft | 301 kts | 170° |
| 2026-04-24 07:22 | 40.68135 | -111.95103 | 7228 ft | 330 kts | 170° |
| 2026-04-24 07:22 | 40.65807 | -111.94415 | 8023 ft | 356 kts | 169° |
| 2026-04-24 07:22 | 40.63326 | -111.93623 | 9076 ft | 371 kts | 169° |
| 2026-04-24 07:23 | 40.60728 | -111.92934 | 9909 ft | 397 kts | 173° |
| 2026-04-24 07:23 | 40.57912 | -111.92347 | 9982 ft | 428 kts | 174° |
| 2026-04-24 07:23 | 40.54815 | -111.91781 | 10118 ft | 464 kts | 175° |
| 2026-04-24 07:23 | 40.51708 | -111.91243 | 11767 ft | 448 kts | 176° |
| 2026-04-24 07:24 | 40.48621 | -111.90897 | 13045 ft | 442 kts | 179° |
| 2026-04-24 07:24 | 40.45566 | -111.90636 | 14224 ft | 439 kts | 179° |
| 2026-04-24 07:24 | 40.42533 | -111.90149 | 15187 ft | 441 kts | 174° |
| 2026-04-24 07:24 | 40.39570 | -111.89393 | 15960 ft | 445 kts | 172° |
| 2026-04-24 07:25 | 40.36519 | -111.88617 | 16672 ft | 449 kts | 174° |
| 2026-04-24 07:25 | 40.33452 | -111.88020 | 17344 ft | 454 kts | 176° |
| 2026-04-24 07:25 | 40.30307 | -111.87446 | 18030 ft | 459 kts | 175° |
| 2026-04-24 07:25 | 40.27130 | -111.86772 | 18648 ft | 465 kts | 174° |
| 2026-04-24 07:26 | 40.23928 | -111.86053 | 19225 ft | 469 kts | 174° |
| 2026-04-24 07:26 | 40.20688 | -111.85373 | 19811 ft | 473 kts | 175° |
| 2026-04-24 07:26 | 40.17425 | -111.84719 | 20393 ft | 477 kts | 175° |
| 2026-04-24 07:26 | 40.14134 | -111.84041 | 20957 ft | 481 kts | 174° |
| 2026-04-24 07:27 | 40.10820 | -111.83337 | 21526 ft | 484 kts | 174° |
| 2026-04-24 07:27 | 40.07484 | -111.82636 | 21994 ft | 486 kts | 174° |
| 2026-04-24 07:27 | 40.04141 | -111.81946 | 21932 ft | 487 kts | 174° |
| 2026-04-24 07:27 | 40.00776 | -111.81256 | 22420 ft | 491 kts | 174° |
| 2026-04-24 07:28 | 39.97511 | -111.80578 | 23032 ft | 493 kts | 174° |
| 2026-04-24 07:28 | 39.94107 | -111.79867 | 23589 ft | 496 kts | 174° |
| 2026-04-24 07:28 | 39.90689 | -111.79160 | 24060 ft | 499 kts | 174° |
| 2026-04-24 07:28 | 39.87252 | -111.78452 | 24497 ft | 502 kts | 174° |
| 2026-04-24 07:29 | 39.83791 | -111.77738 | 24918 ft | 505 kts | 174° |
| 2026-04-24 07:29 | 39.80318 | -111.77020 | 25323 ft | 507 kts | 174° |
| 2026-04-24 07:29 | 39.76822 | -111.76299 | 25734 ft | 510 kts | 174° |
| 2026-04-24 07:29 | 39.73303 | -111.75573 | 26108 ft | 513 kts | 174° |
| 2026-04-24 07:30 | 39.69782 | -111.74851 | 26585 ft | 513 kts | 174° |
| 2026-04-24 07:30 | 39.66259 | -111.74126 | 27210 ft | 511 kts | 174° |
| 2026-04-24 07:30 | 39.62762 | -111.73407 | 27803 ft | 509 kts | 174° |
| 2026-04-24 07:30 | 39.59271 | -111.72692 | 28258 ft | 506 kts | 175° |
| 2026-04-24 07:31 | 39.55821 | -111.71984 | 28199 ft | 494 kts | 175° |
| 2026-04-24 07:31 | 39.52471 | -111.71296 | 28201 ft | 484 kts | 175° |
| 2026-04-24 07:31 | 39.45788 | -111.69980 | 28208 ft | 484 kts | 179° |
| 2026-04-24 07:32 | 39.42454 | -111.69916 | 28222 ft | 477 kts | 190° |
| 2026-04-24 07:32 | 39.39269 | -111.70704 | 28226 ft | 469 kts | 202° |
| 2026-04-24 07:32 | 39.36265 | -111.72358 | 28235 ft | 460 kts | 214° |
| 2026-04-24 07:32 | 39.33713 | -111.74702 | 28229 ft | 453 kts | 225° |
| 2026-04-24 07:33 | 39.31669 | -111.77737 | 28241 ft | 446 kts | 242° |
| 2026-04-24 07:33 | 39.30423 | -111.81358 | 28231 ft | 441 kts | 256° |
| 2026-04-24 07:33 | 39.29383 | -111.89131 | 28220 ft | 439 kts | 265° |
| 2026-04-24 07:34 | 39.28909 | -111.96984 | 28215 ft | 439 kts | 267° |
| 2026-04-24 07:34 | 39.28545 | -112.04846 | 28213 ft | 439 kts | 267° |
| 2026-04-24 07:35 | 39.28201 | -112.12707 | 28203 ft | 439 kts | 268° |
| 2026-04-24 07:35 | 39.27853 | -112.20574 | 28188 ft | 439 kts | 268° |
| 2026-04-24 07:36 | 39.27677 | -112.24521 | 28454 ft | 442 kts | 268° |
| 2026-04-24 07:36 | 39.27502 | -112.28492 | 28939 ft | 444 kts | 268° |
| 2026-04-24 07:36 | 39.27341 | -112.32199 | 29392 ft | 446 kts | 268° |
| 2026-04-24 07:36 | 39.27171 | -112.36200 | 29857 ft | 447 kts | 268° |
| 2026-04-24 07:37 | 39.27001 | -112.40219 | 30280 ft | 449 kts | 268° |
| 2026-04-24 07:37 | 39.26832 | -112.44252 | 30651 ft | 451 kts | 268° |
| 2026-04-24 07:37 | 39.26661 | -112.48298 | 31042 ft | 452 kts | 268° |
| 2026-04-24 07:37 | 39.26490 | -112.52337 | 31643 ft | 448 kts | 268° |
| 2026-04-24 07:38 | 39.26317 | -112.56294 | 31961 ft | 441 kts | 268° |
| 2026-04-24 07:38 | 39.26142 | -112.60237 | 31966 ft | 436 kts | 268° |
| 2026-04-24 07:38 | 39.25794 | -112.68004 | 31963 ft | 433 kts | 268° |
| 2026-04-24 07:39 | 39.25442 | -112.75785 | 31969 ft | 433 kts | 268° |
| 2026-04-24 07:39 | 39.25091 | -112.83512 | 31958 ft | 431 kts | 268° |
| 2026-04-24 07:40 | 39.24741 | -112.91238 | 31953 ft | 431 kts | 268° |
| 2026-04-24 07:40 | 39.24389 | -112.98963 | 31955 ft | 431 kts | 268° |
| 2026-04-24 07:41 | 39.23269 | -113.06532 | 31990 ft | 440 kts | 246° |
| 2026-04-24 07:41 | 39.21520 | -113.09798 | 31983 ft | 449 kts | 233° |
| 2026-04-24 07:41 | 39.19289 | -113.12646 | 31970 ft | 454 kts | 227° |
| 2026-04-24 07:42 | 39.14355 | -113.17769 | 31970 ft | 457 kts | 223° |
| 2026-04-24 07:42 | 39.09258 | -113.22621 | 31964 ft | 456 kts | 222° |
| 2026-04-24 07:43 | 39.04108 | -113.27414 | 31965 ft | 457 kts | 222° |
| 2026-04-24 07:43 | 38.98942 | -113.32182 | 31976 ft | 459 kts | 222° |
| 2026-04-24 07:44 | 38.94385 | -113.37648 | 32005 ft | 439 kts | 243° |
| 2026-04-24 07:44 | 38.91862 | -113.44635 | 31972 ft | 432 kts | 254° |
| 2026-04-24 07:45 | 38.90043 | -113.51854 | 31979 ft | 432 kts | 256° |
| 2026-04-24 07:45 | 38.88338 | -113.59283 | 31990 ft | 441 kts | 257° |
| 2026-04-24 07:46 | 38.87466 | -113.63166 | 32024 ft | 454 kts | 257° |
| 2026-04-24 07:46 | 38.86587 | -113.67123 | 32059 ft | 467 kts | 257° |
| 2026-04-24 07:46 | 38.84822 | -113.75115 | 32049 ft | 467 kts | 257° |
| 2026-04-24 07:47 | 38.83066 | -113.83068 | 31962 ft | 459 kts | 257° |
| 2026-04-24 07:47 | 38.81329 | -113.90939 | 31962 ft | 460 kts | 257° |
| 2026-04-24 07:48 | 38.79588 | -113.98827 | 31975 ft | 457 kts | 257° |
| 2026-04-24 07:48 | 38.77848 | -114.06713 | 31971 ft | 459 kts | 257° |
| 2026-04-24 07:49 | 38.76113 | -114.14583 | 31973 ft | 460 kts | 257° |
| 2026-04-24 07:49 | 38.74374 | -114.22477 | 31986 ft | 461 kts | 257° |
| 2026-04-24 07:50 | 38.72636 | -114.30371 | 31975 ft | 461 kts | 257° |
| 2026-04-24 07:50 | 38.70899 | -114.38263 | 31971 ft | 460 kts | 257° |
| 2026-04-24 07:51 | 38.69162 | -114.46157 | 31969 ft | 460 kts | 257° |
| 2026-04-24 07:51 | 38.67429 | -114.54044 | 31969 ft | 461 kts | 257° |
| 2026-04-24 07:52 | 38.65693 | -114.61940 | 31968 ft | 461 kts | 257° |
| 2026-04-24 07:52 | 38.63955 | -114.69848 | 31984 ft | 463 kts | 257° |
| 2026-04-24 07:53 | 38.62218 | -114.77763 | 31972 ft | 461 kts | 257° |
| 2026-04-24 07:53 | 38.60485 | -114.85657 | 31961 ft | 461 kts | 257° |
| 2026-04-24 07:54 | 38.58752 | -114.93556 | 31962 ft | 462 kts | 257° |
| 2026-04-24 07:54 | 38.57018 | -115.01468 | 31965 ft | 462 kts | 257° |
| 2026-04-24 07:55 | 38.55295 | -115.09331 | 31962 ft | 462 kts | 257° |
| 2026-04-24 07:55 | 38.53563 | -115.17233 | 31963 ft | 462 kts | 257° |
| 2026-04-24 07:56 | 38.51828 | -115.25148 | 31979 ft | 462 kts | 257° |
| 2026-04-24 07:56 | 38.50096 | -115.33047 | 31976 ft | 462 kts | 257° |
| 2026-04-24 07:57 | 38.48368 | -115.40932 | 31983 ft | 462 kts | 257° |
| 2026-04-24 07:57 | 38.46639 | -115.48812 | 31979 ft | 461 kts | 257° |
| 2026-04-24 07:58 | 38.44911 | -115.56695 | 31984 ft | 461 kts | 257° |
| 2026-04-24 07:58 | 38.43060 | -115.64530 | 31979 ft | 463 kts | 254° |
| 2026-04-24 07:59 | 38.40582 | -115.72129 | 31986 ft | 466 kts | 248° |
| 2026-04-24 07:59 | 38.37445 | -115.79393 | 31987 ft | 470 kts | 243° |
| 2026-04-24 08:00 | 38.33678 | -115.86242 | 31984 ft | 475 kts | 236° |
| 2026-04-24 08:00 | 38.28979 | -115.92258 | 32003 ft | 485 kts | 225° |
| 2026-04-24 08:01 | 38.23474 | -115.97322 | 31990 ft | 491 kts | 220° |
| 2026-04-24 08:01 | 38.17824 | -116.01989 | 31962 ft | 474 kts | 219° |
| 2026-04-24 08:02 | 38.12237 | -116.06462 | 31969 ft | 474 kts | 219° |
| 2026-04-24 08:02 | 38.06647 | -116.10917 | 31969 ft | 474 kts | 219° |
| 2026-04-24 08:03 | 38.02010 | -116.14617 | 31969 ft | 474 kts | 219° |
| 2026-04-24 08:03 | 37.96426 | -116.19078 | 31964 ft | 474 kts | 218° |
| 2026-04-24 08:04 | 37.90850 | -116.23537 | 31957 ft | 474 kts | 219° |
| 2026-04-24 08:04 | 37.85274 | -116.28004 | 31961 ft | 474 kts | 219° |
| 2026-04-24 08:05 | 37.79706 | -116.32464 | 31958 ft | 473 kts | 218° |
| 2026-04-24 08:05 | 37.74142 | -116.36928 | 31958 ft | 473 kts | 219° |
| 2026-04-24 08:06 | 37.68584 | -116.41390 | 31958 ft | 473 kts | 219° |
| 2026-04-24 08:06 | 37.63037 | -116.45847 | 31955 ft | 473 kts | 219° |
| 2026-04-24 08:07 | 37.57495 | -116.50304 | 31947 ft | 472 kts | 218° |
| 2026-04-24 08:07 | 37.51964 | -116.54756 | 31957 ft | 472 kts | 219° |
| 2026-04-24 08:08 | 37.49200 | -116.56984 | 31827 ft | 469 kts | 219° |
| 2026-04-24 08:08 | 37.46492 | -116.59166 | 31201 ft | 469 kts | 219° |
| 2026-04-24 08:08 | 37.43703 | -116.61421 | 30468 ft | 466 kts | 218° |
| 2026-04-24 08:09 | 37.38367 | -116.65823 | 26772 ft | 457 kts | 221° |
| 2026-04-24 08:09 | 37.35887 | -116.68266 | 25270 ft | 449 kts | 224° |
| 2026-04-24 08:09 | 37.33565 | -116.70804 | 25008 ft | 444 kts | 225° |
| 2026-04-24 08:09 | 37.31254 | -116.73447 | 24992 ft | 452 kts | 226° |
| 2026-04-24 08:10 | 37.28957 | -116.76124 | 24993 ft | 447 kts | 226° |
| 2026-04-24 08:10 | 37.26714 | -116.78752 | 24985 ft | 438 kts | 226° |
| 2026-04-24 08:10 | 37.24436 | -116.81314 | 24990 ft | 442 kts | 222° |
| 2026-04-24 08:10 | 37.21934 | -116.83570 | 24991 ft | 444 kts | 216° |
| 2026-04-24 08:11 | 37.19229 | -116.85465 | 25000 ft | 447 kts | 210° |
| 2026-04-24 08:11 | 37.16396 | -116.87111 | 24996 ft | 449 kts | 208° |
| 2026-04-24 08:11 | 37.13520 | -116.88639 | 24990 ft | 450 kts | 206° |
| 2026-04-24 08:11 | 37.10621 | -116.90117 | 24990 ft | 450 kts | 206° |
| 2026-04-24 08:12 | 37.07709 | -116.91573 | 24968 ft | 452 kts | 206° |
| 2026-04-24 08:12 | 37.04782 | -116.93026 | 24966 ft | 451 kts | 206° |
| 2026-04-24 08:12 | 37.01866 | -116.94465 | 24964 ft | 451 kts | 206° |
| 2026-04-24 08:12 | 36.98946 | -116.95903 | 24968 ft | 451 kts | 206° |
| 2026-04-24 08:13 | 36.96030 | -116.97335 | 24962 ft | 451 kts | 206° |
| 2026-04-24 08:13 | 36.93110 | -116.98767 | 24949 ft | 450 kts | 206° |
| 2026-04-24 08:13 | 36.90196 | -117.00196 | 24949 ft | 450 kts | 206° |
| 2026-04-24 08:13 | 36.87271 | -117.01630 | 24947 ft | 455 kts | 206° |
| 2026-04-24 08:14 | 36.84276 | -117.03106 | 24951 ft | 470 kts | 206° |
| 2026-04-24 08:14 | 36.81192 | -117.04635 | 24954 ft | 485 kts | 206° |
| 2026-04-24 08:14 | 36.78003 | -117.06225 | 24949 ft | 499 kts | 206° |
| 2026-04-24 08:14 | 36.74777 | -117.07837 | 24960 ft | 502 kts | 206° |
| 2026-04-24 08:15 | 36.71576 | -117.09435 | 24953 ft | 502 kts | 206° |
| 2026-04-24 08:15 | 36.68331 | -117.11055 | 24934 ft | 503 kts | 206° |
| 2026-04-24 08:15 | 36.65087 | -117.12675 | 24934 ft | 502 kts | 205° |
| 2026-04-24 08:15 | 36.61845 | -117.14293 | 24932 ft | 502 kts | 205° |
| 2026-04-24 08:16 | 36.58605 | -117.15911 | 24928 ft | 502 kts | 206° |
| 2026-04-24 08:16 | 36.55359 | -117.17533 | 24939 ft | 502 kts | 205° |
| 2026-04-24 08:16 | 36.52114 | -117.19156 | 24936 ft | 502 kts | 205° |
| 2026-04-24 08:16 | 36.48877 | -117.20774 | 24939 ft | 502 kts | 205° |
| 2026-04-24 08:17 | 36.45634 | -117.22396 | 24934 ft | 502 kts | 206° |
| 2026-04-24 08:17 | 36.42394 | -117.24017 | 24945 ft | 502 kts | 206° |
| 2026-04-24 08:17 | 36.39099 | -117.25495 | 24943 ft | 505 kts | 201° |
| 2026-04-24 08:17 | 36.35720 | -117.26707 | 24946 ft | 506 kts | 199° |
| 2026-04-24 08:18 | 36.32310 | -117.27791 | 24942 ft | 507 kts | 198° |
| 2026-04-24 08:18 | 36.28881 | -117.28815 | 24945 ft | 507 kts | 197° |
| 2026-04-24 08:18 | 36.25450 | -117.29823 | 24941 ft | 506 kts | 198° |
| 2026-04-24 08:18 | 36.22039 | -117.30880 | 24945 ft | 506 kts | 198° |
| 2026-04-24 08:19 | 36.18625 | -117.31972 | 24943 ft | 506 kts | 198° |
| 2026-04-24 08:19 | 36.15225 | -117.33073 | 24935 ft | 505 kts | 198° |
| 2026-04-24 08:19 | 36.11825 | -117.34182 | 24941 ft | 505 kts | 198° |
| 2026-04-24 08:19 | 36.08429 | -117.35294 | 24942 ft | 505 kts | 198° |
| 2026-04-24 08:20 | 36.05063 | -117.36496 | 24942 ft | 503 kts | 201° |
| 2026-04-24 08:20 | 36.01762 | -117.37917 | 24944 ft | 501 kts | 204° |
| 2026-04-24 08:20 | 35.98500 | -117.39442 | 24945 ft | 502 kts | 205° |
| 2026-04-24 08:20 | 35.95257 | -117.41017 | 24946 ft | 501 kts | 205° |
| 2026-04-24 08:21 | 35.92071 | -117.42593 | 24931 ft | 498 kts | 205° |
| 2026-04-24 08:21 | 35.88837 | -117.44202 | 24618 ft | 492 kts | 205° |
| 2026-04-24 08:21 | 35.85676 | -117.45783 | 24214 ft | 488 kts | 205° |
| 2026-04-24 08:21 | 35.82547 | -117.47353 | 23765 ft | 486 kts | 205° |
| 2026-04-24 08:22 | 35.79500 | -117.48882 | 22300 ft | 477 kts | 205° |
| 2026-04-24 08:22 | 35.76409 | -117.50445 | 21146 ft | 484 kts | 205° |
| 2026-04-24 08:22 | 35.73346 | -117.52006 | 20984 ft | 468 kts | 205° |
| 2026-04-24 08:22 | 35.70312 | -117.53554 | 21006 ft | 476 kts | 205° |
| 2026-04-24 08:23 | 35.67263 | -117.55113 | 20995 ft | 474 kts | 205° |
| 2026-04-24 08:23 | 35.64215 | -117.56673 | 21012 ft | 475 kts | 205° |
| 2026-04-24 08:23 | 35.61159 | -117.58236 | 21010 ft | 475 kts | 205° |
| 2026-04-24 08:23 | 35.58108 | -117.59796 | 20997 ft | 474 kts | 205° |
| 2026-04-24 08:24 | 35.55080 | -117.61342 | 20777 ft | 467 kts | 205° |
| 2026-04-24 08:24 | 35.52099 | -117.62859 | 20196 ft | 462 kts | 205° |
| 2026-04-24 08:24 | 35.49141 | -117.64362 | 19509 ft | 457 kts | 205° |
| 2026-04-24 08:24 | 35.46226 | -117.65840 | 18803 ft | 453 kts | 205° |
| 2026-04-24 08:25 | 35.43321 | -117.67311 | 18089 ft | 449 kts | 205° |
| 2026-04-24 08:25 | 35.40450 | -117.68767 | 17331 ft | 445 kts | 205° |
| 2026-04-24 08:25 | 35.37605 | -117.70220 | 16583 ft | 440 kts | 205° |
| 2026-04-24 08:25 | 35.34803 | -117.71666 | 15895 ft | 436 kts | 205° |
| 2026-04-24 08:26 | 35.32058 | -117.73092 | 15450 ft | 428 kts | 205° |
| 2026-04-24 08:26 | 35.29323 | -117.74523 | 14978 ft | 423 kts | 205° |
| 2026-04-24 08:26 | 35.26634 | -117.75936 | 14977 ft | 425 kts | 205° |
| 2026-04-24 08:26 | 35.23911 | -117.77369 | 14977 ft | 424 kts | 205° |
| 2026-04-24 08:27 | 35.21187 | -117.78804 | 14983 ft | 426 kts | 205° |
| 2026-04-24 08:27 | 35.18462 | -117.80236 | 14985 ft | 426 kts | 206° |
| 2026-04-24 08:27 | 35.15735 | -117.81664 | 14990 ft | 426 kts | 205° |
| 2026-04-24 08:27 | 35.13012 | -117.83087 | 14990 ft | 426 kts | 205° |
| 2026-04-24 08:28 | 35.10288 | -117.84507 | 14994 ft | 426 kts | 205° |
| 2026-04-24 08:28 | 35.07561 | -117.85924 | 14998 ft | 426 kts | 206° |
| 2026-04-24 08:28 | 35.04832 | -117.87338 | 15000 ft | 426 kts | 205° |
| 2026-04-24 08:28 | 35.02106 | -117.88747 | 15006 ft | 425 kts | 205° |
| 2026-04-24 08:29 | 34.99381 | -117.90151 | 15005 ft | 425 kts | 205° |
| 2026-04-24 08:29 | 34.96654 | -117.91553 | 15005 ft | 426 kts | 205° |
| 2026-04-24 08:29 | 34.93937 | -117.92947 | 15003 ft | 426 kts | 205° |
| 2026-04-24 08:29 | 34.91199 | -117.94349 | 15004 ft | 425 kts | 205° |
| 2026-04-24 08:30 | 34.88469 | -117.95744 | 15003 ft | 426 kts | 205° |
| 2026-04-24 08:30 | 34.85738 | -117.97136 | 14965 ft | 423 kts | 205° |
| 2026-04-24 08:30 | 34.83039 | -117.98509 | 14508 ft | 419 kts | 205° |
| 2026-04-24 08:30 | 34.80400 | -117.99848 | 13030 ft | 408 kts | 205° |
| 2026-04-24 08:31 | 34.77806 | -118.01180 | 11349 ft | 402 kts | 205° |
| 2026-04-24 08:31 | 34.75263 | -118.02516 | 10362 ft | 404 kts | 205° |
| 2026-04-24 08:31 | 34.72673 | -118.03903 | 9787 ft | 399 kts | 205° |
| 2026-04-24 08:31 | 34.70190 | -118.05247 | 9164 ft | 395 kts | 205° |
| 2026-04-24 08:32 | 34.67692 | -118.06606 | 8652 ft | 389 kts | 205° |
| 2026-04-24 08:32 | 34.65230 | -118.07950 | 8554 ft | 391 kts | 205° |
| 2026-04-24 08:32 | 34.62840 | -118.09258 | 8537 ft | 391 kts | 205° |
| 2026-04-24 08:32 | 34.60357 | -118.10642 | 8543 ft | 392 kts | 208° |
| 2026-04-24 08:33 | 34.58090 | -118.12451 | 8548 ft | 391 kts | 220° |
| 2026-04-24 08:33 | 34.56153 | -118.14662 | 8547 ft | 390 kts | 228° |
| 2026-04-24 08:33 | 34.54362 | -118.17131 | 8544 ft | 389 kts | 231° |
| 2026-04-24 08:33 | 34.52645 | -118.19671 | 8529 ft | 390 kts | 232° |
| 2026-04-24 08:34 | 34.50953 | -118.22243 | 8531 ft | 390 kts | 232° |
| 2026-04-24 08:34 | 34.49277 | -118.24815 | 8524 ft | 390 kts | 232° |
| 2026-04-24 08:34 | 34.47600 | -118.27396 | 8526 ft | 389 kts | 232° |
| 2026-04-24 08:34 | 34.45766 | -118.29810 | 8518 ft | 391 kts | 220° |
| 2026-04-24 08:35 | 34.43459 | -118.31526 | 8499 ft | 392 kts | 204° |
| 2026-04-24 08:35 | 34.40827 | -118.32425 | 8505 ft | 395 kts | 189° |
| 2026-04-24 08:35 | 34.38116 | -118.32422 | 8505 ft | 386 kts | 173° |
| 2026-04-24 08:35 | 34.35578 | -118.31577 | 8492 ft | 369 kts | 160° |
| 2026-04-24 08:36 | 34.33510 | -118.30514 | 8492 ft | 355 kts | 156° |
| 2026-04-24 08:36 | 34.31326 | -118.29242 | 8486 ft | 343 kts | 155° |
| 2026-04-24 08:36 | 34.29182 | -118.27939 | 8494 ft | 344 kts | 154° |
| 2026-04-24 08:36 | 34.27043 | -118.26622 | 8498 ft | 346 kts | 154° |
| 2026-04-24 08:37 | 34.24928 | -118.25317 | 8496 ft | 346 kts | 154° |
| 2026-04-24 08:37 | 34.22787 | -118.23995 | 8497 ft | 346 kts | 154° |
| 2026-04-24 08:37 | 34.20610 | -118.22651 | 8497 ft | 346 kts | 154° |
| 2026-04-24 08:37 | 34.18497 | -118.21347 | 8495 ft | 346 kts | 154° |
| 2026-04-24 08:38 | 34.16352 | -118.20023 | 8496 ft | 346 kts | 154° |
| 2026-04-24 08:38 | 34.14178 | -118.18680 | 8496 ft | 346 kts | 154° |
| 2026-04-24 08:38 | 34.12064 | -118.17373 | 8496 ft | 346 kts | 154° |
| 2026-04-24 08:38 | 34.09935 | -118.16058 | 8308 ft | 344 kts | 154° |
| 2026-04-24 08:39 | 34.07812 | -118.14748 | 8059 ft | 343 kts | 154° |
| 2026-04-24 08:39 | 34.05660 | -118.13519 | 8003 ft | 343 kts | 159° |
| 2026-04-24 08:39 | 34.03425 | -118.12525 | 7939 ft | 341 kts | 165° |
| 2026-04-24 08:39 | 34.01108 | -118.12218 | 7732 ft | 335 kts | 187° |
| 2026-04-24 08:40 | 33.98896 | -118.12994 | 7516 ft | 331 kts | 210° |
| 2026-04-24 08:40 | 33.97145 | -118.14752 | 7214 ft | 334 kts | 233° |
| 2026-04-24 08:40 | 33.96179 | -118.17467 | 6961 ft | 365 kts | 264° |
| 2026-04-24 08:40 | 33.96084 | -118.20501 | 6654 ft | 343 kts | 270° |
| 2026-04-24 08:41 | 33.95914 | -118.23139 | 6227 ft | 304 kts | 262° |
| 2026-04-24 08:41 | 33.95562 | -118.25711 | 4623 ft | 308 kts | 262° |
| 2026-04-24 08:41 | 33.95191 | -118.28185 | 2902 ft | 294 kts | 260° |
| 2026-04-24 08:41 | 33.94842 | -118.30559 | 1761 ft | 269 kts | 264° |
| 2026-04-24 08:42 | 33.94571 | -118.32580 | 1322 ft | 227 kts | 264° |
| 2026-04-24 08:42 | 33.94364 | -118.34304 | 959 ft | 199 kts | 258° |
| 2026-04-24 08:42 | 33.94192 | -118.35821 | 590 ft | 181 kts | 263° |
| 2026-04-24 08:42 | 33.94075 | -118.37113 | 304 ft | 173 kts | 261° |
| 2026-04-24 08:43 | 33.93926 | -118.38536 | 136 ft | 165 kts | 262° |
| 2026-04-24 08:43 | 33.93823 | -118.39588 | 125 ft | 83 kts | 263° |
| 2026-04-24 08:43 | 33.93849 | -118.39956 | 128 ft | 21 kts | 304° |
| 2026-04-24 08:43 | 33.93861 | -118.39975 | 124 ft | 0 kts | 307° |
| 2026-04-24 08:44 | 33.93865 | -118.39982 | 125 ft | 6 kts | 307° |
| 2026-04-24 08:44 | 33.93937 | -118.40046 | 129 ft | 19 kts | 341° |
| 2026-04-24 08:44 | 33.94078 | -118.40073 | 128 ft | 15 kts | 340° |
| 2026-04-24 08:44 | 33.94096 | -118.40096 | 126 ft | 4 kts | 295° |
| 2026-04-24 08:45 | 33.94097 | -118.40122 | 124 ft | 0 kts | 271° |